AAL1080 KMIA-KATL
Flight info
| Callsign | AAL1080 |
|---|---|
| Flight time | 1h 35m |
| Altitude | 36000 |
| Route | FLMGO2 STYMY Q77 MJAMS/N0455F370 Q77 SHRKS/N0457F360 LAIRI LARZZ JJEDI4 |
| Aircraft | B738/M-SDE2E3FGHIRWXY/LB1 |
Departure
| Time | 2026-05-07 02:00 |
|---|---|
| Airport | Miami International Airport (KMIA) |
Arrival
| Time | 2026-05-07 03:36 |
|---|---|
| Airport | Hartsfield Jackson Atlanta International Airport (KATL) |
| Time | Latitude | Longitude | Altitude | Speed | Heading |
|---|---|---|---|---|---|
| 2026-05-07 01:42 | 25.79909 | -80.27317 | 20 ft | 0 kts | 168° |
| 2026-05-07 01:52 | 25.79923 | -80.27320 | 20 ft | 4 kts | 167° |
| 2026-05-07 01:52 | 25.79947 | -80.27328 | 20 ft | 4 kts | 162° |
| 2026-05-07 01:52 | 25.79972 | -80.27332 | 22 ft | 4 kts | 194° |
| 2026-05-07 01:52 | 25.79992 | -80.27319 | 24 ft | 4 kts | 248° |
| 2026-05-07 01:53 | 25.79995 | -80.27309 | 21 ft | 0 kts | 266° |
| 2026-05-07 01:54 | 25.79995 | -80.27311 | 21 ft | 1 kts | 266° |
| 2026-05-07 01:54 | 25.79993 | -80.27350 | 20 ft | 11 kts | 268° |
| 2026-05-07 01:55 | 25.79996 | -80.27456 | 19 ft | 13 kts | 290° |
| 2026-05-07 01:55 | 25.80063 | -80.27530 | 16 ft | 15 kts | 288° |
| 2026-05-07 01:55 | 25.80062 | -80.27656 | 15 ft | 18 kts | 266° |
| 2026-05-07 01:55 | 25.80057 | -80.27803 | 14 ft | 20 kts | 269° |
| 2026-05-07 01:56 | 25.80051 | -80.27956 | 12 ft | 20 kts | 267° |
| 2026-05-07 01:56 | 25.80044 | -80.28108 | 12 ft | 19 kts | 267° |
| 2026-05-07 01:56 | 25.80038 | -80.28253 | 14 ft | 20 kts | 267° |
| 2026-05-07 01:56 | 25.80031 | -80.28428 | 14 ft | 24 kts | 267° |
| 2026-05-07 01:57 | 25.80026 | -80.28603 | 18 ft | 23 kts | 267° |
| 2026-05-07 01:57 | 25.80018 | -80.28776 | 22 ft | 22 kts | 266° |
| 2026-05-07 01:57 | 25.80010 | -80.28943 | 19 ft | 21 kts | 267° |
| 2026-05-07 01:57 | 25.80003 | -80.29102 | 20 ft | 21 kts | 267° |
| 2026-05-07 01:58 | 25.79997 | -80.29262 | 20 ft | 21 kts | 267° |
| 2026-05-07 01:58 | 25.79990 | -80.29430 | 14 ft | 23 kts | 268° |
| 2026-05-07 01:58 | 25.79984 | -80.29611 | 13 ft | 23 kts | 267° |
| 2026-05-07 01:58 | 25.79976 | -80.29780 | 12 ft | 22 kts | 267° |
| 2026-05-07 01:59 | 25.79972 | -80.29946 | 10 ft | 22 kts | 285° |
| 2026-05-07 01:59 | 25.80010 | -80.30096 | 15 ft | 13 kts | 292° |
| 2026-05-07 01:59 | 25.80065 | -80.30106 | 15 ft | 10 kts | 50° |
| 2026-05-07 01:59 | 25.80076 | -80.29999 | 11 ft | 26 kts | 88° |
| 2026-05-07 02:00 | 25.80095 | -80.29546 | 13 ft | 90 kts | 87° |
| 2026-05-07 02:00 | 25.80132 | -80.28653 | 18 ft | 139 kts | 87° |
| 2026-05-07 02:00 | 25.80172 | -80.27486 | 302 ft | 153 kts | 89° |
| 2026-05-07 02:00 | 25.80214 | -80.26282 | 779 ft | 159 kts | 90° |
| 2026-05-07 02:01 | 25.80263 | -80.25058 | 1358 ft | 158 kts | 87° |
| 2026-05-07 02:01 | 25.80342 | -80.23825 | 1877 ft | 165 kts | 86° |
| 2026-05-07 02:01 | 25.80415 | -80.22442 | 2138 ft | 194 kts | 87° |
| 2026-05-07 02:01 | 25.80482 | -80.20856 | 2354 ft | 217 kts | 87° |
| 2026-05-07 02:02 | 25.80546 | -80.19113 | 2574 ft | 234 kts | 86° |
| 2026-05-07 02:02 | 25.81010 | -80.17363 | 2877 ft | 247 kts | 57° |
| 2026-05-07 02:02 | 25.82356 | -80.16124 | 3209 ft | 262 kts | 20° |
| 2026-05-07 02:02 | 25.84162 | -80.15843 | 3943 ft | 265 kts | 2° |
| 2026-05-07 02:03 | 25.86023 | -80.15799 | 4671 ft | 269 kts | 1° |
| 2026-05-07 02:03 | 25.87896 | -80.15752 | 5409 ft | 271 kts | 1° |
| 2026-05-07 02:03 | 25.89790 | -80.15807 | 6147 ft | 274 kts | 348° |
| 2026-05-07 02:03 | 25.91622 | -80.16422 | 6903 ft | 276 kts | 340° |
| 2026-05-07 02:04 | 25.93461 | -80.17109 | 7604 ft | 281 kts | 341° |
| 2026-05-07 02:04 | 25.95329 | -80.17781 | 8333 ft | 284 kts | 342° |
| 2026-05-07 02:04 | 25.97231 | -80.18452 | 9054 ft | 288 kts | 342° |
| 2026-05-07 02:04 | 25.99097 | -80.19272 | 9734 ft | 293 kts | 327° |
| 2026-05-07 02:05 | 26.00672 | -80.20723 | 10408 ft | 299 kts | 320° |
| 2026-05-07 02:05 | 26.02273 | -80.22332 | 10591 ft | 322 kts | 319° |
| 2026-05-07 02:05 | 26.03989 | -80.24062 | 10759 ft | 343 kts | 320° |
| 2026-05-07 02:05 | 26.05798 | -80.25882 | 11082 ft | 356 kts | 320° |
| 2026-05-07 02:06 | 26.07653 | -80.27741 | 11648 ft | 361 kts | 320° |
| 2026-05-07 02:06 | 26.09527 | -80.29612 | 12337 ft | 362 kts | 321° |
| 2026-05-07 02:06 | 26.11408 | -80.31488 | 13013 ft | 364 kts | 321° |
| 2026-05-07 02:06 | 26.13306 | -80.33377 | 13692 ft | 366 kts | 320° |
| 2026-05-07 02:07 | 26.15207 | -80.35269 | 14373 ft | 368 kts | 320° |
| 2026-05-07 02:07 | 26.19044 | -80.39089 | 15745 ft | 371 kts | 320° |
| 2026-05-07 02:07 | 26.20978 | -80.41014 | 16360 ft | 375 kts | 320° |
| 2026-05-07 02:08 | 26.22939 | -80.42884 | 16931 ft | 377 kts | 326° |
| 2026-05-07 02:08 | 26.25281 | -80.44270 | 17538 ft | 378 kts | 335° |
| 2026-05-07 02:08 | 26.27641 | -80.45476 | 18128 ft | 380 kts | 335° |
| 2026-05-07 02:08 | 26.30080 | -80.46732 | 18680 ft | 383 kts | 335° |
| 2026-05-07 02:09 | 26.32467 | -80.47975 | 19203 ft | 385 kts | 334° |
| 2026-05-07 02:09 | 26.34901 | -80.49258 | 19750 ft | 387 kts | 334° |
| 2026-05-07 02:09 | 26.37338 | -80.50549 | 20278 ft | 389 kts | 334° |
| 2026-05-07 02:09 | 26.39783 | -80.51851 | 20784 ft | 391 kts | 334° |
| 2026-05-07 02:10 | 26.42247 | -80.53163 | 21276 ft | 393 kts | 334° |
| 2026-05-07 02:10 | 26.44721 | -80.54480 | 21751 ft | 395 kts | 334° |
| 2026-05-07 02:10 | 26.47203 | -80.55803 | 22207 ft | 397 kts | 333° |
| 2026-05-07 02:10 | 26.49746 | -80.57033 | 22660 ft | 399 kts | 339° |
| 2026-05-07 02:11 | 26.52405 | -80.57966 | 23066 ft | 403 kts | 342° |
| 2026-05-07 02:11 | 26.55119 | -80.58780 | 23479 ft | 405 kts | 343° |
| 2026-05-07 02:11 | 26.57851 | -80.59573 | 23885 ft | 406 kts | 343° |
| 2026-05-07 02:11 | 26.60590 | -80.60381 | 24262 ft | 408 kts | 342° |
| 2026-05-07 02:12 | 26.63332 | -80.61214 | 24605 ft | 411 kts | 342° |
| 2026-05-07 02:12 | 26.66098 | -80.62073 | 24922 ft | 414 kts | 342° |
| 2026-05-07 02:12 | 26.68876 | -80.62950 | 25285 ft | 415 kts | 341° |
| 2026-05-07 02:12 | 26.71662 | -80.63835 | 25621 ft | 417 kts | 341° |
| 2026-05-07 02:13 | 26.74459 | -80.64728 | 25940 ft | 420 kts | 341° |
| 2026-05-07 02:13 | 26.77273 | -80.65625 | 26279 ft | 421 kts | 341° |
| 2026-05-07 02:13 | 26.80101 | -80.66527 | 26585 ft | 424 kts | 341° |
| 2026-05-07 02:13 | 26.82944 | -80.67435 | 26882 ft | 426 kts | 341° |
| 2026-05-07 02:14 | 26.85765 | -80.68335 | 27201 ft | 427 kts | 341° |
| 2026-05-07 02:14 | 26.88629 | -80.69249 | 27487 ft | 429 kts | 341° |
| 2026-05-07 02:14 | 26.91503 | -80.70168 | 27772 ft | 431 kts | 341° |
| 2026-05-07 02:14 | 26.94378 | -80.71170 | 28045 ft | 432 kts | 339° |
| 2026-05-07 02:15 | 26.97224 | -80.72251 | 28353 ft | 433 kts | 338° |
| 2026-05-07 02:15 | 27.00072 | -80.73360 | 28644 ft | 434 kts | 338° |
| 2026-05-07 02:15 | 27.02934 | -80.74474 | 28869 ft | 437 kts | 338° |
| 2026-05-07 02:15 | 27.05820 | -80.75587 | 29118 ft | 438 kts | 338° |
| 2026-05-07 02:16 | 27.08708 | -80.76691 | 29383 ft | 440 kts | 338° |
| 2026-05-07 02:16 | 27.11610 | -80.77793 | 29674 ft | 440 kts | 338° |
| 2026-05-07 02:16 | 27.14510 | -80.78892 | 30050 ft | 439 kts | 338° |
| 2026-05-07 02:16 | 27.17391 | -80.79983 | 30441 ft | 437 kts | 338° |
| 2026-05-07 02:17 | 27.20268 | -80.81074 | 30825 ft | 435 kts | 338° |
| 2026-05-07 02:17 | 27.23133 | -80.82161 | 31250 ft | 433 kts | 338° |
| 2026-05-07 02:17 | 27.25978 | -80.83242 | 31632 ft | 431 kts | 337° |
| 2026-05-07 02:17 | 27.28820 | -80.84323 | 31973 ft | 431 kts | 337° |
| 2026-05-07 02:18 | 27.31654 | -80.85401 | 32304 ft | 430 kts | 337° |
| 2026-05-07 02:18 | 27.34475 | -80.86502 | 32693 ft | 428 kts | 336° |
| 2026-05-07 02:18 | 27.37262 | -80.87638 | 33106 ft | 425 kts | 336° |
| 2026-05-07 02:18 | 27.40029 | -80.88786 | 33499 ft | 422 kts | 335° |
| 2026-05-07 02:19 | 27.42745 | -80.89919 | 33805 ft | 422 kts | 336° |
| 2026-05-07 02:19 | 27.45494 | -80.91063 | 34135 ft | 421 kts | 335° |
| 2026-05-07 02:19 | 27.48238 | -80.92202 | 34443 ft | 420 kts | 335° |
| 2026-05-07 02:19 | 27.50984 | -80.93340 | 34717 ft | 421 kts | 335° |
| 2026-05-07 02:20 | 27.53730 | -80.94475 | 35004 ft | 420 kts | 335° |
| 2026-05-07 02:20 | 27.56475 | -80.95608 | 35335 ft | 419 kts | 335° |
| 2026-05-07 02:20 | 27.59206 | -80.96735 | 35604 ft | 419 kts | 335° |
| 2026-05-07 02:20 | 27.61946 | -80.97868 | 35842 ft | 419 kts | 335° |
| 2026-05-07 02:21 | 27.64679 | -80.98998 | 36100 ft | 419 kts | 335° |
| 2026-05-07 02:21 | 27.67429 | -81.00136 | 36077 ft | 422 kts | 335° |
| 2026-05-07 02:21 | 27.72949 | -81.02421 | 36084 ft | 421 kts | 335° |
| 2026-05-07 02:22 | 27.78401 | -81.04678 | 36076 ft | 415 kts | 335° |
| 2026-05-07 02:22 | 27.83812 | -81.06923 | 36084 ft | 414 kts | 335° |
| 2026-05-07 02:23 | 27.89217 | -81.09170 | 36081 ft | 413 kts | 335° |
| 2026-05-07 02:23 | 27.94575 | -81.11399 | 36084 ft | 413 kts | 335° |
| 2026-05-07 02:24 | 27.99967 | -81.13643 | 36086 ft | 413 kts | 335° |
| 2026-05-07 02:24 | 28.05347 | -81.15954 | 36085 ft | 412 kts | 332° |
| 2026-05-07 02:25 | 28.09721 | -81.18188 | 36090 ft | 412 kts | 330° |
| 2026-05-07 02:25 | 28.14872 | -81.20907 | 36081 ft | 413 kts | 330° |
| 2026-05-07 02:26 | 28.20126 | -81.23640 | 36083 ft | 414 kts | 330° |
| 2026-05-07 02:26 | 28.25331 | -81.26324 | 36085 ft | 415 kts | 330° |
| 2026-05-07 02:27 | 28.30603 | -81.29042 | 36081 ft | 416 kts | 330° |
| 2026-05-07 02:27 | 28.35862 | -81.31753 | 36074 ft | 416 kts | 330° |
| 2026-05-07 02:28 | 28.41160 | -81.34455 | 36074 ft | 416 kts | 331° |
| 2026-05-07 02:28 | 28.46437 | -81.37144 | 36074 ft | 416 kts | 330° |
| 2026-05-07 02:29 | 28.51732 | -81.39849 | 36071 ft | 416 kts | 330° |
| 2026-05-07 02:29 | 28.57000 | -81.42544 | 36074 ft | 415 kts | 330° |
| 2026-05-07 02:30 | 28.62245 | -81.45232 | 36074 ft | 414 kts | 330° |
| 2026-05-07 02:30 | 28.67508 | -81.47932 | 36077 ft | 414 kts | 330° |
| 2026-05-07 02:31 | 28.72651 | -81.50573 | 36073 ft | 413 kts | 330° |
| 2026-05-07 02:31 | 28.77890 | -81.53267 | 36072 ft | 413 kts | 330° |
| 2026-05-07 02:32 | 28.83124 | -81.55962 | 36079 ft | 412 kts | 330° |
| 2026-05-07 02:32 | 28.88334 | -81.58647 | 36088 ft | 411 kts | 330° |
| 2026-05-07 02:33 | 28.93754 | -81.60878 | 36087 ft | 420 kts | 341° |
| 2026-05-07 02:33 | 28.99619 | -81.61626 | 36087 ft | 427 kts | 348° |
| 2026-05-07 02:34 | 29.05555 | -81.62116 | 36082 ft | 427 kts | 348° |
| 2026-05-07 02:34 | 29.11455 | -81.62626 | 36082 ft | 427 kts | 348° |
| 2026-05-07 02:35 | 29.17367 | -81.63161 | 36083 ft | 427 kts | 348° |
| 2026-05-07 02:35 | 29.23296 | -81.63707 | 36081 ft | 427 kts | 348° |
| 2026-05-07 02:36 | 29.29209 | -81.64252 | 36086 ft | 427 kts | 348° |
| 2026-05-07 02:36 | 29.35144 | -81.64800 | 36080 ft | 427 kts | 348° |
| 2026-05-07 02:37 | 29.41059 | -81.65346 | 36078 ft | 427 kts | 347° |
| 2026-05-07 02:37 | 29.46969 | -81.65893 | 36076 ft | 427 kts | 347° |
| 2026-05-07 02:38 | 29.52903 | -81.66442 | 36070 ft | 427 kts | 347° |
| 2026-05-07 02:38 | 29.58822 | -81.66990 | 36065 ft | 427 kts | 347° |
| 2026-05-07 02:39 | 29.64706 | -81.67536 | 36060 ft | 427 kts | 347° |
| 2026-05-07 02:39 | 29.70659 | -81.68088 | 36066 ft | 427 kts | 347° |
| 2026-05-07 02:40 | 29.76572 | -81.68634 | 36062 ft | 427 kts | 347° |
| 2026-05-07 02:40 | 29.82460 | -81.69175 | 36069 ft | 427 kts | 347° |
| 2026-05-07 02:41 | 29.88363 | -81.69719 | 36067 ft | 426 kts | 347° |
| 2026-05-07 02:41 | 29.94269 | -81.70265 | 36067 ft | 426 kts | 347° |
| 2026-05-07 02:42 | 30.00195 | -81.70813 | 36067 ft | 426 kts | 347° |
| 2026-05-07 02:42 | 30.06101 | -81.71361 | 36068 ft | 427 kts | 347° |
| 2026-05-07 02:43 | 30.12022 | -81.71910 | 36073 ft | 427 kts | 347° |
| 2026-05-07 02:43 | 30.17959 | -81.72461 | 36075 ft | 427 kts | 347° |
| 2026-05-07 02:44 | 30.23887 | -81.73013 | 36065 ft | 428 kts | 347° |
| 2026-05-07 02:44 | 30.29811 | -81.73564 | 36068 ft | 428 kts | 347° |
| 2026-05-07 02:45 | 30.35744 | -81.74116 | 36075 ft | 428 kts | 347° |
| 2026-05-07 02:45 | 30.41689 | -81.74671 | 36069 ft | 428 kts | 347° |
| 2026-05-07 02:46 | 30.47618 | -81.75225 | 36056 ft | 428 kts | 347° |
| 2026-05-07 02:46 | 30.53560 | -81.75781 | 36057 ft | 428 kts | 347° |
| 2026-05-07 02:47 | 30.59492 | -81.76357 | 36036 ft | 425 kts | 344° |
| 2026-05-07 02:47 | 30.65071 | -81.78122 | 36045 ft | 408 kts | 328° |
| 2026-05-07 02:48 | 30.70065 | -81.81014 | 36051 ft | 405 kts | 327° |
| 2026-05-07 02:48 | 30.75096 | -81.83968 | 36046 ft | 405 kts | 327° |
| 2026-05-07 02:49 | 30.80142 | -81.86911 | 36036 ft | 405 kts | 327° |
| 2026-05-07 02:49 | 30.85184 | -81.89841 | 36040 ft | 405 kts | 327° |
| 2026-05-07 02:50 | 30.90239 | -81.92779 | 36048 ft | 405 kts | 327° |
| 2026-05-07 02:50 | 30.95288 | -81.95713 | 36055 ft | 406 kts | 327° |
| 2026-05-07 02:51 | 31.00332 | -81.98648 | 36055 ft | 406 kts | 327° |
| 2026-05-07 02:51 | 31.05386 | -82.01594 | 36036 ft | 406 kts | 326° |
| 2026-05-07 02:52 | 31.10444 | -82.04547 | 36054 ft | 406 kts | 326° |
| 2026-05-07 02:52 | 31.15496 | -82.07499 | 36045 ft | 407 kts | 326° |
| 2026-05-07 02:53 | 31.20564 | -82.10463 | 36052 ft | 407 kts | 326° |
| 2026-05-07 02:53 | 31.25646 | -82.13439 | 36053 ft | 407 kts | 326° |
| 2026-05-07 02:54 | 31.30700 | -82.16402 | 36036 ft | 407 kts | 326° |
| 2026-05-07 02:54 | 31.35764 | -82.19376 | 36033 ft | 407 kts | 326° |
| 2026-05-07 02:55 | 31.40833 | -82.22354 | 36033 ft | 407 kts | 326° |
| 2026-05-07 02:55 | 31.45897 | -82.25335 | 36036 ft | 407 kts | 326° |
| 2026-05-07 02:56 | 31.50922 | -82.28295 | 36034 ft | 407 kts | 326° |
| 2026-05-07 02:56 | 31.55977 | -82.31277 | 36034 ft | 407 kts | 326° |
| 2026-05-07 02:57 | 31.61059 | -82.34279 | 36026 ft | 406 kts | 326° |
| 2026-05-07 02:57 | 31.66073 | -82.37244 | 36020 ft | 406 kts | 326° |
| 2026-05-07 02:58 | 31.71113 | -82.40228 | 36018 ft | 405 kts | 326° |
| 2026-05-07 02:58 | 31.76143 | -82.43209 | 36019 ft | 405 kts | 326° |
| 2026-05-07 02:59 | 31.81157 | -82.46187 | 36022 ft | 404 kts | 326° |
| 2026-05-07 02:59 | 31.86208 | -82.49189 | 36028 ft | 404 kts | 326° |
| 2026-05-07 03:00 | 31.91223 | -82.52173 | 36023 ft | 404 kts | 326° |
| 2026-05-07 03:00 | 31.96143 | -82.55239 | 36017 ft | 400 kts | 320° |
| 2026-05-07 03:01 | 32.00421 | -82.59320 | 36022 ft | 397 kts | 313° |
| 2026-05-07 03:01 | 32.00449 | -82.59350 | 36022 ft | 397 kts | 313° |
| 2026-05-07 03:04 | 32.03290 | -82.62283 | 36032 ft | 404 kts | 313° |
| 2026-05-07 03:05 | 32.07570 | -82.66668 | 36014 ft | 406 kts | 313° |
| 2026-05-07 03:05 | 32.11796 | -82.70976 | 36010 ft | 402 kts | 313° |
| 2026-05-07 03:06 | 32.13906 | -82.73130 | 35833 ft | 403 kts | 313° |
| 2026-05-07 03:06 | 32.16032 | -82.75304 | 35289 ft | 403 kts | 313° |
| 2026-05-07 03:06 | 32.18156 | -82.77474 | 34648 ft | 402 kts | 313° |
| 2026-05-07 03:06 | 32.20271 | -82.79638 | 33969 ft | 402 kts | 313° |
| 2026-05-07 03:07 | 32.22382 | -82.81799 | 33350 ft | 401 kts | 313° |
| 2026-05-07 03:07 | 32.24475 | -82.83941 | 32865 ft | 396 kts | 313° |
| 2026-05-07 03:07 | 32.26543 | -82.86060 | 32364 ft | 393 kts | 313° |
| 2026-05-07 03:07 | 32.28600 | -82.88170 | 31874 ft | 389 kts | 313° |
| 2026-05-07 03:08 | 32.30630 | -82.90253 | 31392 ft | 385 kts | 313° |
| 2026-05-07 03:08 | 32.32639 | -82.92319 | 30921 ft | 381 kts | 313° |
| 2026-05-07 03:08 | 32.34638 | -82.94374 | 30454 ft | 378 kts | 313° |
| 2026-05-07 03:08 | 32.36611 | -82.96402 | 29983 ft | 375 kts | 313° |
| 2026-05-07 03:09 | 32.38569 | -82.98416 | 29494 ft | 371 kts | 313° |
| 2026-05-07 03:09 | 32.40517 | -83.00418 | 28927 ft | 370 kts | 313° |
| 2026-05-07 03:09 | 32.42450 | -83.02405 | 28443 ft | 367 kts | 313° |
| 2026-05-07 03:09 | 32.44365 | -83.04374 | 27960 ft | 364 kts | 313° |
| 2026-05-07 03:10 | 32.46243 | -83.06308 | 27489 ft | 361 kts | 313° |
| 2026-05-07 03:10 | 32.48129 | -83.08251 | 27021 ft | 357 kts | 313° |
| 2026-05-07 03:10 | 32.49973 | -83.10153 | 26559 ft | 354 kts | 313° |
| 2026-05-07 03:10 | 32.51857 | -83.12098 | 26093 ft | 351 kts | 312° |
| 2026-05-07 03:11 | 32.53667 | -83.13967 | 25652 ft | 348 kts | 312° |
| 2026-05-07 03:11 | 32.55482 | -83.15842 | 25207 ft | 344 kts | 312° |
| 2026-05-07 03:11 | 32.57286 | -83.17706 | 24773 ft | 342 kts | 312° |
| 2026-05-07 03:11 | 32.59084 | -83.19565 | 24302 ft | 339 kts | 312° |
| 2026-05-07 03:12 | 32.60845 | -83.21388 | 23813 ft | 338 kts | 311° |
| 2026-05-07 03:12 | 32.62620 | -83.23230 | 23359 ft | 335 kts | 311° |
| 2026-05-07 03:12 | 32.64369 | -83.25043 | 22921 ft | 333 kts | 312° |
| 2026-05-07 03:12 | 32.66079 | -83.26816 | 22498 ft | 330 kts | 312° |
| 2026-05-07 03:13 | 32.67805 | -83.28610 | 22067 ft | 328 kts | 312° |
| 2026-05-07 03:13 | 32.69519 | -83.30393 | 21648 ft | 325 kts | 312° |
| 2026-05-07 03:13 | 32.71221 | -83.32164 | 21224 ft | 323 kts | 312° |
| 2026-05-07 03:13 | 32.72923 | -83.33936 | 20804 ft | 321 kts | 312° |
| 2026-05-07 03:14 | 32.74034 | -83.35093 | 20536 ft | 319 kts | 312° |
| 2026-05-07 03:14 | 32.76236 | -83.37388 | 19986 ft | 317 kts | 312° |
| 2026-05-07 03:14 | 32.79559 | -83.40856 | 19175 ft | 319 kts | 312° |
| 2026-05-07 03:15 | 32.81244 | -83.42619 | 18770 ft | 327 kts | 312° |
| 2026-05-07 03:15 | 32.82961 | -83.44416 | 18338 ft | 330 kts | 313° |
| 2026-05-07 03:15 | 32.84103 | -83.45607 | 18045 ft | 329 kts | 313° |
| 2026-05-07 03:15 | 32.86386 | -83.47988 | 17477 ft | 324 kts | 313° |
| 2026-05-07 03:16 | 32.87511 | -83.49162 | 17203 ft | 323 kts | 313° |
| 2026-05-07 03:16 | 32.89211 | -83.50940 | 16775 ft | 320 kts | 313° |
| 2026-05-07 03:16 | 32.90850 | -83.52655 | 16374 ft | 317 kts | 313° |
| 2026-05-07 03:16 | 32.92503 | -83.54385 | 15950 ft | 315 kts | 313° |
| 2026-05-07 03:17 | 32.94142 | -83.56101 | 15539 ft | 313 kts | 313° |
| 2026-05-07 03:17 | 32.95774 | -83.57811 | 15057 ft | 314 kts | 313° |
| 2026-05-07 03:17 | 32.97413 | -83.59528 | 14603 ft | 313 kts | 312° |
| 2026-05-07 03:17 | 32.99048 | -83.61240 | 14185 ft | 312 kts | 313° |
| 2026-05-07 03:18 | 33.00667 | -83.62936 | 13771 ft | 310 kts | 313° |
| 2026-05-07 03:18 | 33.02282 | -83.64629 | 13372 ft | 308 kts | 313° |
| 2026-05-07 03:18 | 33.03892 | -83.66317 | 12969 ft | 307 kts | 313° |
| 2026-05-07 03:18 | 33.05492 | -83.67998 | 12570 ft | 306 kts | 313° |
| 2026-05-07 03:19 | 33.07082 | -83.69669 | 12178 ft | 305 kts | 312° |
| 2026-05-07 03:19 | 33.08671 | -83.71338 | 11779 ft | 304 kts | 312° |
| 2026-05-07 03:19 | 33.10235 | -83.72980 | 11577 ft | 297 kts | 312° |
| 2026-05-07 03:19 | 33.11747 | -83.74568 | 11425 ft | 288 kts | 312° |
| 2026-05-07 03:20 | 33.13242 | -83.76137 | 11288 ft | 279 kts | 312° |
| 2026-05-07 03:20 | 33.14661 | -83.77633 | 11051 ft | 275 kts | 311° |
| 2026-05-07 03:20 | 33.16113 | -83.79169 | 10728 ft | 274 kts | 311° |
| 2026-05-07 03:20 | 33.17520 | -83.80658 | 10435 ft | 273 kts | 311° |
| 2026-05-07 03:21 | 33.18942 | -83.82163 | 10135 ft | 272 kts | 311° |
| 2026-05-07 03:21 | 33.20266 | -83.83667 | 10026 ft | 262 kts | 308° |
| 2026-05-07 03:21 | 33.21556 | -83.85213 | 9726 ft | 261 kts | 308° |
| 2026-05-07 03:21 | 33.22831 | -83.86752 | 9451 ft | 260 kts | 308° |
| 2026-05-07 03:22 | 33.24106 | -83.88285 | 9168 ft | 259 kts | 308° |
| 2026-05-07 03:22 | 33.25386 | -83.89817 | 8880 ft | 258 kts | 308° |
| 2026-05-07 03:22 | 33.26652 | -83.91330 | 8596 ft | 258 kts | 308° |
| 2026-05-07 03:22 | 33.27922 | -83.92845 | 8312 ft | 258 kts | 308° |
| 2026-05-07 03:23 | 33.29188 | -83.94356 | 8082 ft | 258 kts | 308° |
| 2026-05-07 03:23 | 33.30463 | -83.95880 | 8038 ft | 260 kts | 308° |
| 2026-05-07 03:23 | 33.31737 | -83.97403 | 8013 ft | 256 kts | 308° |
| 2026-05-07 03:23 | 33.32972 | -83.98875 | 7995 ft | 244 kts | 307° |
| 2026-05-07 03:24 | 33.34141 | -84.00268 | 7988 ft | 230 kts | 307° |
| 2026-05-07 03:24 | 33.35254 | -84.01599 | 7737 ft | 229 kts | 307° |
| 2026-05-07 03:24 | 33.36590 | -84.02796 | 7073 ft | 260 kts | 337° |
| 2026-05-07 03:24 | 33.38397 | -84.02996 | 6944 ft | 266 kts | 354° |
| 2026-05-07 03:25 | 33.40254 | -84.02997 | 6713 ft | 267 kts | 354° |
| 2026-05-07 03:25 | 33.42112 | -84.03013 | 6542 ft | 266 kts | 354° |
| 2026-05-07 03:25 | 33.43959 | -84.03042 | 6395 ft | 264 kts | 354° |
| 2026-05-07 03:25 | 33.45787 | -84.03075 | 6231 ft | 261 kts | 354° |
| 2026-05-07 03:26 | 33.47606 | -84.03018 | 6043 ft | 264 kts | 358° |
| 2026-05-07 03:26 | 33.49459 | -84.02858 | 5884 ft | 269 kts | 359° |
| 2026-05-07 03:26 | 33.51318 | -84.02692 | 5737 ft | 267 kts | 359° |
| 2026-05-07 03:26 | 33.53170 | -84.02516 | 5650 ft | 264 kts | 359° |
| 2026-05-07 03:27 | 33.55007 | -84.02348 | 5555 ft | 266 kts | 359° |
| 2026-05-07 03:27 | 33.56827 | -84.02171 | 5297 ft | 261 kts | 359° |
| 2026-05-07 03:27 | 33.58617 | -84.02000 | 4818 ft | 255 kts | 359° |
| 2026-05-07 03:27 | 33.60387 | -84.01837 | 4129 ft | 256 kts | 359° |
| 2026-05-07 03:28 | 33.62106 | -84.02026 | 3501 ft | 243 kts | 331° |
| 2026-05-07 03:28 | 33.63298 | -84.03285 | 3132 ft | 223 kts | 291° |
| 2026-05-07 03:28 | 33.63483 | -84.05019 | 3025 ft | 201 kts | 258° |
| 2026-05-07 03:28 | 33.63319 | -84.06596 | 2989 ft | 183 kts | 263° |
| 2026-05-07 03:29 | 33.63279 | -84.08059 | 2954 ft | 169 kts | 264° |
| 2026-05-07 03:29 | 33.63260 | -84.09446 | 2987 ft | 166 kts | 264° |
| 2026-05-07 03:29 | 33.63247 | -84.10834 | 2988 ft | 168 kts | 265° |
| 2026-05-07 03:29 | 33.63236 | -84.12248 | 3009 ft | 171 kts | 266° |
| 2026-05-07 03:30 | 33.63231 | -84.13694 | 3000 ft | 175 kts | 266° |
| 2026-05-07 03:30 | 33.63230 | -84.15160 | 2998 ft | 177 kts | 266° |
| 2026-05-07 03:30 | 33.63228 | -84.16630 | 2993 ft | 176 kts | 266° |
| 2026-05-07 03:30 | 33.63237 | -84.18051 | 2989 ft | 170 kts | 260° |
| 2026-05-07 03:31 | 33.63179 | -84.19490 | 2998 ft | 173 kts | 266° |
| 2026-05-07 03:31 | 33.63196 | -84.20922 | 3001 ft | 175 kts | 266° |
| 2026-05-07 03:31 | 33.63204 | -84.22389 | 3000 ft | 177 kts | 266° |
| 2026-05-07 03:31 | 33.63205 | -84.23870 | 3002 ft | 178 kts | 266° |
| 2026-05-07 03:32 | 33.63203 | -84.25352 | 3002 ft | 178 kts | 266° |
| 2026-05-07 03:32 | 33.63200 | -84.26832 | 2995 ft | 175 kts | 265° |
| 2026-05-07 03:32 | 33.63199 | -84.28218 | 2975 ft | 155 kts | 265° |
| 2026-05-07 03:32 | 33.63198 | -84.29425 | 2947 ft | 138 kts | 264° |
| 2026-05-07 03:33 | 33.63195 | -84.30554 | 2870 ft | 135 kts | 264° |
| 2026-05-07 03:33 | 33.63192 | -84.31690 | 2677 ft | 135 kts | 264° |
| 2026-05-07 03:33 | 33.63190 | -84.32826 | 2494 ft | 138 kts | 265° |
| 2026-05-07 03:33 | 33.63188 | -84.33990 | 2304 ft | 141 kts | 265° |
| 2026-05-07 03:34 | 33.63187 | -84.35178 | 2114 ft | 145 kts | 266° |
| 2026-05-07 03:34 | 33.63186 | -84.36398 | 1921 ft | 146 kts | 265° |
| 2026-05-07 03:34 | 33.63186 | -84.37606 | 1725 ft | 145 kts | 266° |
| 2026-05-07 03:34 | 33.63187 | -84.38806 | 1533 ft | 144 kts | 266° |
| 2026-05-07 03:35 | 33.63200 | -84.39992 | 1363 ft | 136 kts | 266° |
| 2026-05-07 03:35 | 33.63176 | -84.41122 | 1156 ft | 137 kts | 266° |
| 2026-05-07 03:35 | 33.63179 | -84.42310 | 1014 ft | 144 kts | 267° |
| 2026-05-07 03:35 | 33.63177 | -84.43390 | 1007 ft | 111 kts | 273° |
| 2026-05-07 03:36 | 33.63182 | -84.43940 | 1003 ft | 28 kts | 271° |
| 2026-05-07 03:36 | 33.63226 | -84.44155 | 1004 ft | 26 kts | 293° |
| 2026-05-07 03:36 | 33.63312 | -84.44259 | 1005 ft | 14 kts | 7° |
| 2026-05-07 03:36 | 33.63368 | -84.44218 | 1005 ft | 0 kts | 38° |
| 2026-05-07 03:37 | 33.63374 | -84.44213 | 1005 ft | 5 kts | 38° |
| 2026-05-07 03:37 | 33.63417 | -84.44196 | 1005 ft | 8 kts | 1° |
| 2026-05-07 03:38 | 33.63484 | -84.44194 | 1006 ft | 12 kts | 1° |
| 2026-05-07 03:38 | 33.63567 | -84.44193 | 1006 ft | 12 kts | 359° |
| 2026-05-07 03:38 | 33.63645 | -84.44174 | 1006 ft | 12 kts | 33° |
| 2026-05-07 03:38 | 33.63711 | -84.44121 | 1006 ft | 12 kts | 18° |
| 2026-05-07 03:39 | 33.63808 | -84.44114 | 1005 ft | 17 kts | 359° |
| 2026-05-07 03:39 | 33.63943 | -84.44116 | 1005 ft | 20 kts | 0° |
| 2026-05-07 03:39 | 33.64066 | -84.44115 | 1005 ft | 15 kts | 0° |
| 2026-05-07 03:39 | 33.64156 | -84.44115 | 1005 ft | 12 kts | 360° |
| 2026-05-07 03:40 | 33.64236 | -84.44114 | 1005 ft | 9 kts | 1° |
| 2026-05-07 03:40 | 33.64263 | -84.44114 | 1005 ft | 2 kts | 1° |
| 2026-05-07 03:40 | 33.64275 | -84.44114 | 1005 ft | 2 kts | 0° |
| 2026-05-07 03:40 | 33.64287 | -84.44114 | 1005 ft | 2 kts | 0° |
| 2026-05-07 03:41 | 33.64308 | -84.44114 | 1005 ft | 5 kts | 353° |
| 2026-05-07 03:41 | 33.64324 | -84.44159 | 1005 ft | 4 kts | 272° |
| 2026-05-07 03:41 | 33.64324 | -84.44184 | 1005 ft | 2 kts | 271° |
| 2026-05-07 03:41 | 33.64324 | -84.44192 | 1005 ft | 0 kts | 271° |